Time;durP1;ratioP1;P1;durP2;ratioP2;P2;SDS_P1;SDS_P2;PMS_P1;PMS_P2;Temp;Humidity;BMP_temperature;BMP_pressure;BME280_temperature;BME280_humidity;BME280_pressure;Samples;Min_cycle;Max_cycle;Signal;HPM_P1;HPM_P2
2023/09/06 00:01:41;;;;;;;;;;;23.00;63.50;;;23.10;43.72;99014.25;4932386;28;124044;-83
2023/09/06 00:04:10;;;;;;;;;;;23.00;63.70;;;23.09;43.83;99018.28;4929736;28;114419;-83
2023/09/06 00:06:38;;;;;;;;;;;23.00;63.90;;;23.06;44.11;99019.06;4920104;28;114318;-84
2023/09/06 00:09:05;;;;;;;;;;;22.40;63.50;;;23.05;43.99;99018.28;4930467;28;124240;-83
2023/09/06 00:11:33;;;;;;;;;;;22.90;64.40;;;23.03;44.30;99015.03;4960001;28;124274;-82
2023/09/06 00:14:03;;;;;;;;;;;22.90;64.70;;;23.01;44.42;99017.41;4959085;28;115336;-83
2023/09/06 00:16:29;;;;;;;;;;;22.80;64.80;;;22.99;44.47;99022.63;4948586;28;114699;-83
2023/09/06 00:18:59;;;;;;;;;;;22.80;65.00;;;23.00;44.68;99026.25;4949922;28;123628;-84
2023/09/06 00:21:27;;;;;;;;;;;22.80;65.30;;;22.98;44.74;99023.03;4929121;28;123975;-83
2023/09/06 00:23:55;;;;;;;;;;;22.80;65.50;;;22.94;44.47;99018.16;4937235;28;113689;-83
2023/09/06 00:26:22;;;;;;;;;;;22.70;65.50;;;22.91;44.85;99007.63;4942523;28;113681;-82
2023/09/06 00:28:50;;;;;;;;;;;22.70;65.80;;;22.88;44.91;99013.25;4936020;28;124081;-83
2023/09/06 00:31:17;;;;;;;;;;;22.70;65.90;;;22.85;44.80;99014.84;4951837;28;123752;-83
2023/09/06 00:33:44;;;;;;;;;;;22.60;66.00;;;22.83;44.98;99013.63;4931983;28;114963;-83
2023/09/06 00:36:10;;;;;;;;;;;22.60;66.20;;;22.80;45.34;99017.22;4942864;28;113860;-83
2023/09/06 00:38:38;;;;;;;;;;;22.60;66.40;;;22.77;45.02;99013.16;4919894;28;123137;-83
2023/09/06 00:41:07;;;;;;;;;;;22.50;66.50;;;22.76;45.22;99013.56;4955288;28;124148;-83
2023/09/06 00:43:33;;;;;;;;;;;22.50;66.70;;;22.73;45.46;99012.34;4935944;28;115085;-83
2023/09/06 00:46:06;;;;;;;;;;;22.50;66.80;;;22.70;45.45;98999.84;4937975;28;114007;-83
2023/09/06 00:48:33;;;;;;;;;;;22.50;67.00;;;22.67;45.37;99005.41;4924877;28;124360;-83
2023/09/06 00:51:03;;;;;;;;;;;22.40;67.00;;;22.65;45.50;99016.28;4953067;28;123850;-83
2023/09/06 00:53:32;;;;;;;;;;;22.40;67.10;;;22.63;45.71;99018.69;4949316;28;114160;-83
2023/09/06 00:55:59;;;;;;;;;;;22.40;67.20;;;22.59;45.48;99024.25;4948265;28;114087;-83
2023/09/06 00:58:27;;;;;;;;;;;22.40;67.30;;;22.58;45.49;99014.19;4946674;28;124881;-83
2023/09/06 01:00:53;;;;;;;;;;;22.30;67.20;;;22.55;45.78;99017.81;4909309;28;123477;-83
2023/09/06 01:03:34;;;;;;;;;;;22.30;67.30;;;22.49;45.52;99020.16;4926285;28;115205;-83
2023/09/06 01:06:38;;;;;;;;;;;22.30;67.40;;;22.44;45.34;99012.06;4948828;28;114938;-83
2023/09/06 01:09:22;;;;;;;;;;;22.20;67.30;;;22.40;45.54;99013.22;4931186;28;124496;-83
2023/09/06 01:11:51;;;;;;;;;;;22.20;67.50;;;22.37;45.62;99009.16;4924935;28;123866;-83
2023/09/06 01:14:48;;;;;;;;;;;22.20;67.60;;;22.33;45.62;99010.34;4931438;28;113210;-83
2023/09/06 01:17:16;;;;;;;;;;;22.10;67.60;;;22.31;45.75;99009.91;4932513;28;114209;-83
2023/09/06 01:20:19;;;;;;;;;;;22.10;67.70;;;22.23;45.97;99007.03;4928777;28;124249;-83
2023/09/06 01:26:15;;;;;;;;;;;22.00;67.90;;;22.14;46.35;99003.69;4941221;28;115068;-83
2023/09/06 01:28:45;;;;;;;;;;;21.90;68.00;;;22.12;46.23;99010.88;4940685;28;113853;-83
2023/09/06 01:31:14;;;;;;;;;;;21.90;68.10;;;22.09;45.99;99006.84;4917811;28;124136;-83
2023/09/06 01:33:40;;;;;;;;;;;21.90;68.30;;;22.06;46.40;99002.78;4912227;28;124556;-81
2023/09/06 01:39:29;;;;;;;;;;;21.80;68.40;;;21.98;46.07;99005.91;4950828;28;114544;-83
2023/09/06 01:42:29;;;;;;;;;;;21.80;68.40;;;21.94;46.22;98999.41;4937528;28;124332;-83
2023/09/06 01:45:29;;;;;;;;;;;21.70;68.40;;;21.87;46.36;98999.31;4927123;28;123040;-83
2023/09/06 01:49:02;;;;;;;;;;;21.70;68.40;;;21.81;46.42;99001.66;4925671;28;114665;-83
2023/09/06 01:51:41;;;;;;;;;;;21.60;68.50;;;21.79;46.45;99001.25;4850717;29;114647;-84
2023/09/06 01:54:09;;;;;;;;;;;21.60;68.60;;;21.76;46.25;98997.22;4866321;28;124160;-83
2023/09/06 01:57:08;;;;;;;;;;;21.60;68.60;;;21.71;46.11;99000.38;4849966;29;124109;-84
2023/09/06 01:59:43;;;;;;;;;;;21.50;68.60;;;21.69;46.25;99004.75;4851423;29;114704;-84
2023/09/06 02:02:15;;;;;;;;;;;21.50;68.60;;;21.66;46.45;99003.50;4859024;28;115386;-83
2023/09/06 02:05:33;;;;;;;;;;;21.50;68.70;;;21.59;46.07;99001.41;4856674;28;124295;-82
2023/09/06 02:08:16;;;;;;;;;;;21.40;68.60;;;21.57;46.50;99003.81;4879648;28;124737;-84
2023/09/06 02:10:42;;;;;;;;;;;21.40;68.80;;;21.55;46.45;99003.38;4903268;28;113824;-84
2023/09/06 02:13:26;;;;;;;;;;;21.30;68.90;;;21.52;46.56;99006.94;4953964;28;113039;-84
2023/09/06 02:16:17;;;;;;;;;;;21.30;69.10;;;21.48;46.91;99003.25;4922250;28;124343;-83
2023/09/06 02:18:50;;;;;;;;;;;21.30;69.40;;;21.47;47.39;99006.47;4835727;29;122889;-83
2023/09/06 02:25:05;;;;;;;;;;;21.20;70.00;;;21.34;47.84;98994.59;4827282;29;114914;-84
2023/09/06 02:28:18;;;;;;;;;;;21.10;70.40;;;21.30;48.00;99002.97;4832459;29;124815;-84
2023/09/06 02:30:47;;;;;;;;;;;21.10;70.80;;;21.26;48.30;98999.31;4758742;29;123710;-83
2023/09/06 02:33:28;;;;;;;;;;;21.00;71.00;;;21.23;48.24;98999.28;4745399;29;113683;-84
2023/09/06 02:35:57;;;;;;;;;;;21.00;71.50;;;21.22;48.61;99000.44;4761851;29;113786;-84
2023/09/06 02:38:39;;;;;;;;;;;21.00;71.70;;;21.16;48.76;99000.75;4752774;29;123698;-84
2023/09/06 02:41:16;;;;;;;;;;;21.00;72.00;;;21.15;48.54;99003.97;4760231;29;123784;-84
2023/09/06 02:43:51;;;;;;;;;;;20.90;72.10;;;21.12;49.23;99005.53;4748323;29;114191;-85
2023/09/06 02:47:03;;;;;;;;;;;20.90;72.50;;;21.10;48.79;99007.09;4761177;29;113631;-84
2023/09/06 02:49:45;;;;;;;;;;;20.90;72.80;;;21.04;49.13;99009.44;4761586;29;124289;-84
2023/09/06 02:52:58;;;;;;;;;;;20.80;73.00;;;20.99;49.08;99009.75;4745007;29;123931;-84
2023/09/06 02:55:27;;;;;;;;;;;20.80;73.20;;;20.95;49.18;99000.44;4770409;29;115566;-84
2023/09/06 02:57:57;;;;;;;;;;;20.70;73.10;;;20.91;49.03;99000.38;4819558;29;113706;-84
2023/09/06 03:03:58;;;;;;;;;;;20.70;73.40;;;20.83;49.19;98993.03;4805878;29;124809;-85
2023/09/06 03:06:34;;;;;;;;;;;20.60;73.30;;;20.81;49.44;99000.22;4801274;29;114281;-84
2023/09/06 03:09:10;;;;;;;;;;;20.60;73.30;;;20.80;48.94;98998.59;4852909;29;112755;-84
2023/09/06 03:15:51;;;;;;;;;;;20.10;72.90;;;20.71;49.00;98996.03;4838591;29;123281;-84
2023/09/06 03:18:21;;;;;;;;;;;20.50;73.40;;;20.68;48.88;99003.22;4846364;29;113780;-83
2023/09/06 03:20:55;;;;;;;;;;;20.40;73.30;;;20.66;48.96;99000.00;4868604;28;113717;-84
2023/09/06 03:26:44;;;;;;;;;;;20.40;73.50;;;20.58;49.16;99003.88;4817687;29;124465;-84
2023/09/06 03:29:50;;;;;;;;;;;20.40;73.50;;;20.55;49.12;99009.41;4836367;29;114617;-84
2023/09/06 03:35:27;;;;;;;;;;;20.30;73.60;;;20.51;49.06;99009.31;4841054;29;125002;-84
2023/09/06 03:41:20;;;;;;;;;;;20.20;73.60;;;20.46;48.99;99012.44;4836081;29;113926;-85
2023/09/06 03:44:31;;;;;;;;;;;20.20;73.70;;;20.42;49.27;99020.78;4850841;28;113657;-83
2023/09/06 03:47:30;;;;;;;;;;;20.20;73.90;;;20.32;48.98;99014.97;4840609;28;124252;-84
2023/09/06 03:50:21;;;;;;;;;;;20.10;73.90;;;20.20;49.48;99016.78;4844601;28;123906;-86
2023/09/06 03:52:50;;;;;;;;;;;20.10;74.10;;;20.17;49.63;99006.28;4875559;28;115616;-83
2023/09/06 03:56:29;;;;;;;;;;;20.00;74.30;;;20.14;49.68;99007.03;4890286;28;114840;-84
2023/09/06 03:58:47;;;;;;;;;;;20.00;74.50;;;20.13;49.46;99011.03;4891860;28;125535;-84
2023/09/06 04:01:25;;;;;;;;;;;19.90;74.60;;;20.13;50.02;99011.03;4905708;28;124286;-84
2023/09/06 04:04:16;;;;;;;;;;;19.90;75.00;;;20.10;49.75;99016.56;4879900;28;113953;-84
2023/09/06 04:06:48;;;;;;;;;;;19.90;75.10;;;20.10;50.02;99008.97;4896291;28;113797;-86
2023/09/06 04:10:17;;;;;;;;;;;19.80;75.10;;;20.08;49.89;99014.13;4901815;28;124200;-84
2023/09/06 04:12:46;;;;;;;;;;;19.80;75.20;;;20.07;50.04;99006.91;4834658;29;123189;-84
2023/09/06 04:15:21;;;;;;;;;;;19.80;75.20;;;20.07;49.62;99007.72;4828034;29;113826;-84
2023/09/06 04:18:18;;;;;;;;;;;19.80;75.30;;;20.05;49.71;99009.25;4833674;28;113688;-83
2023/09/06 04:20:59;;;;;;;;;;;19.80;75.50;;;20.03;49.79;99008.81;4860989;28;124832;-84
2023/09/06 04:23:25;;;;;;;;;;;19.80;75.60;;;20.01;50.22;99013.97;4855514;28;122803;-84
2023/09/06 04:25:52;;;;;;;;;;;19.80;76.50;;;19.99;50.29;99016.38;4849209;29;114308;-84
2023/09/06 04:28:21;;;;;;;;;;;19.70;75.80;;;19.98;50.35;99017.53;4870291;28;113793;-84
2023/09/06 04:30:47;;;;;;;;;;;19.70;76.00;;;19.97;50.22;99019.53;4868913;28;124269;-84
2023/09/06 04:33:49;;;;;;;;;;;19.70;76.10;;;19.93;50.17;99017.81;4857021;28;123196;-84
2023/09/06 04:37:02;;;;;;;;;;;19.70;76.30;;;19.91;50.44;99020.19;4843657;28;113041;-84
2023/09/06 04:40:02;;;;;;;;;;;19.70;76.50;;;19.89;50.33;99023.38;4869893;28;113657;-84
2023/09/06 04:42:35;;;;;;;;;;;19.70;76.70;;;19.91;50.42;99020.19;4853901;28;123571;-86
2023/09/06 04:48:23;;;;;;;;;;;19.60;76.90;;;19.82;50.68;99021.22;4920429;28;116188;-84
2023/09/06 04:54:00;;;;;;;;;;;19.60;77.20;;;19.76;50.60;99024.69;4902566;28;124743;-85
2023/09/06 04:56:32;;;;;;;;;;;19.50;77.30;;;19.75;50.70;99029.50;4947032;28;123967;-83
2023/09/06 04:59:23;;;;;;;;;;;19.50;77.40;;;19.74;50.65;99024.25;4941904;28;115023;-84
2023/09/06 05:01:52;;;;;;;;;;;19.50;77.50;;;19.73;50.68;99026.25;4915316;28;113809;-84
2023/09/06 05:04:19;;;;;;;;;;;19.50;77.60;;;19.73;50.63;99031.84;4939450;28;123772;-85
2023/09/06 05:06:54;;;;;;;;;;;19.40;77.50;;;19.73;50.81;99031.84;4942408;28;123842;-85
2023/09/06 05:09:23;;;;;;;;;;;19.50;77.80;;;19.76;50.74;99038.72;4933596;28;114350;-84
2023/09/06 05:11:56;;;;;;;;;;;19.40;77.80;;;19.75;50.74;99039.91;4930360;28;113301;-84
2023/09/06 05:14:38;;;;;;;;;;;19.50;77.90;;;19.74;50.66;99050.28;4931604;28;124059;-85
2023/09/06 05:17:10;;;;;;;;;;;19.40;78.00;;;19.72;50.93;99035.84;4934426;28;123824;-83
2023/09/06 05:23:21;;;;;;;;;;;19.40;78.60;;;19.60;51.53;99052.75;4925969;28;114230;-84
2023/09/06 05:26:25;;;;;;;;;;;19.40;79.40;;;19.54;51.44;99045.81;4913244;28;124317;-84
2023/09/06 05:28:51;;;;;;;;;;;19.30;79.00;;;19.54;51.44;99045.81;4924894;28;123944;-83
2023/09/06 05:34:44;;;;;;;;;;;19.40;79.40;;;19.60;51.58;99049.94;4933592;28;113409;-83
2023/09/06 05:37:13;;;;;;;;;;;19.30;79.50;;;19.62;51.50;99045.59;4916480;28;124298;-82
2023/09/06 05:39:46;;;;;;;;;;;19.30;79.60;;;19.64;51.34;99053.66;4910041;28;123275;-82
2023/09/06 05:42:12;;;;;;;;;;;19.40;79.90;;;19.67;51.30;99049.34;4895586;28;115603;-82
2023/09/06 05:44:44;;;;;;;;;;;19.40;79.80;;;19.68;51.37;99045.34;4934863;28;114663;-83
2023/09/06 05:47:34;;;;;;;;;;;19.40;79.90;;;19.68;51.13;99045.34;4920466;28;124072;-84
2023/09/06 05:50:20;;;;;;;;;;;19.40;79.80;;;19.71;51.05;99051.03;4930140;28;124013;-84
2023/09/06 05:53:26;;;;;;;;;;;19.40;79.60;;;19.70;50.75;99052.22;4928582;28;114731;-84
2023/09/06 05:55:58;;;;;;;;;;;19.40;79.40;;;19.75;50.51;99054.72;4880176;28;113707;-84
2023/09/06 05:58:40;;;;;;;;;;;19.40;79.30;;;19.77;50.51;99052.38;4914120;28;124254;-84
2023/09/06 06:01:06;;;;;;;;;;;19.40;79.20;;;19.84;50.32;99052.50;4916957;28;123061;-85
2023/09/06 06:04:20;;;;;;;;;;;19.50;79.30;;;19.91;50.35;99048.22;4923013;28;114076;-84
2023/09/06 06:06:52;;;;;;;;;;;19.50;79.50;;;20.01;50.47;99050.44;4923233;28;116057;-84
2023/09/06 06:09:24;;;;;;;;;;;19.60;79.70;;;20.08;50.27;99057.00;4932019;28;124106;-84
2023/09/06 06:11:53;;;;;;;;;;;19.60;79.90;;;20.16;50.22;99065.56;4905586;28;123190;-82
2023/09/06 06:14:31;;;;;;;;;;;19.70;79.60;;;20.21;49.62;99068.91;4950527;28;114091;-83
2023/09/06 06:17:00;;;;;;;;;;;19.80;79.10;;;20.26;49.20;99071.41;4933067;28;113958;-84
2023/09/06 06:19:41;;;;;;;;;;;19.80;78.70;;;20.32;48.88;99071.09;4926753;28;124342;-83
2023/09/06 06:22:08;;;;;;;;;;;19.90;78.40;;;20.38;49.00;99072.41;4968020;28;123520;-83
2023/09/06 06:24:50;;;;;;;;;;;19.90;78.10;;;20.45;48.55;99072.56;4944183;28;114101;-82
2023/09/06 06:27:38;;;;;;;;;;;20.00;78.00;;;20.52;48.53;99067.06;4957580;28;113793;-83
2023/09/06 06:30:35;;;;;;;;;;;20.00;77.70;;;20.57;47.94;99068.78;4933279;28;124477;-82
2023/09/06 06:33:09;;;;;;;;;;;20.10;77.40;;;20.63;47.77;99072.91;4945094;28;123972;-82
2023/09/06 06:35:47;;;;;;;;;;;20.20;77.10;;;20.67;48.13;99071.00;4934967;28;115378;-83
2023/09/06 06:38:22;;;;;;;;;;;20.20;76.90;;;20.73;47.69;99069.47;4940299;28;114317;-83
2023/09/06 06:41:11;;;;;;;;;;;20.20;76.80;;;20.80;47.47;99061.19;4952433;28;124985;-81
2023/09/06 06:43:49;;;;;;;;;;;20.30;76.90;;;20.88;47.49;99071.38;4948679;28;123627;-83
2023/09/06 06:50:39;;;;;;;;;;;20.30;77.00;;;20.93;47.40;99064.63;4851284;28;114283;-82
2023/09/06 06:53:11;;;;;;;;;;;20.30;77.00;;;21.02;47.73;99059.56;4844244;29;124473;-82
2023/09/06 06:55:48;;;;;;;;;;;20.40;77.10;;;21.13;47.36;99068.16;4838600;28;123626;-83
2023/09/06 06:58:18;;;;;;;;;;;20.50;77.10;;;21.24;47.53;99068.31;4858748;28;114651;-82
2023/09/06 07:00:44;;;;;;;;;;;20.60;77.00;;;21.34;47.18;99068.50;4855023;29;113621;-82
2023/09/06 07:03:12;;;;;;;;;;;22.80;78.80;;;21.44;46.90;99072.69;4853774;28;124006;-82
2023/09/06 07:05:53;;;;;;;;;;;20.80;76.70;;;21.54;46.77;99071.22;4853141;28;124029;-82
2023/09/06 07:08:26;;;;;;;;;;;20.90;76.70;;;21.65;46.83;99077.78;4851931;29;114563;-82
2023/09/06 07:11:11;;;;;;;;;;;21.00;76.60;;;21.71;46.24;99069.84;4853815;29;113527;-82
2023/09/06 07:13:38;;;;;;;;;;;21.10;76.30;;;21.75;46.18;99076.34;4852865;29;124842;-83
2023/09/06 07:16:52;;;;;;;;;;;21.10;75.90;;;21.73;45.84;99073.88;4853239;29;124250;-83
2023/09/06 07:19:30;;;;;;;;;;;21.10;75.60;;;21.70;45.69;99071.03;4815581;29;114458;-82
2023/09/06 07:22:04;;;;;;;;;;;21.10;75.30;;;21.70;46.03;99082.28;4851986;29;114236;-82
2023/09/06 07:24:40;;;;;;;;;;;21.10;75.20;;;21.68;46.06;99082.69;4844272;28;124076;-82
2023/09/06 07:27:12;;;;;;;;;;;21.10;75.40;;;21.77;46.10;99088.84;4929217;28;123814;-83
2023/09/06 07:29:54;;;;;;;;;;;21.20;75.50;;;21.89;45.63;99079.34;4922891;28;115307;-82
2023/09/06 07:33:08;;;;;;;;;;;21.30;75.50;;;21.98;45.66;99090.31;4915900;28;114975;-83
2023/09/06 07:35:49;;;;;;;;;;;21.30;75.30;;;22.04;45.53;99081.16;4916234;28;124332;-81
2023/09/06 07:38:20;;;;;;;;;;;21.40;75.30;;;22.12;45.04;99078.44;4913709;28;124373;-82
2023/09/06 07:40:59;;;;;;;;;;;21.40;74.60;;;22.14;45.19;99070.38;4940322;28;113379;-82
2023/09/06 07:43:28;;;;;;;;;;;21.50;74.50;;;22.20;45.40;99075.34;4917779;28;113599;-82
2023/09/06 07:46:09;;;;;;;;;;;21.60;74.60;;;22.28;45.21;99070.63;4926539;28;123712;-82
2023/09/06 07:48:39;;;;;;;;;;;21.70;74.60;;;22.31;44.87;99064.22;4933822;28;124011;-82
2023/09/06 07:51:09;;;;;;;;;;;21.70;74.20;;;22.30;45.09;99064.59;4938122;28;114675;-81
2023/09/06 07:53:39;;;;;;;;;;;21.70;74.30;;;22.30;44.98;99071.03;4921149;28;113212;-83
2023/09/06 07:56:07;;;;;;;;;;;21.70;74.40;;;22.35;45.11;99070.69;4940612;28;124467;-82
2023/09/06 07:58:36;;;;;;;;;;;21.70;74.30;;;22.41;44.90;99068.34;4938708;28;124669;-82
2023/09/06 08:01:10;;;;;;;;;;;21.80;74.40;;;22.52;44.87;99066.44;4937041;28;114422;-82
2023/09/06 08:03:48;;;;;;;;;;;21.90;74.40;;;22.65;44.87;99067.00;4959682;28;113858;-81
2023/09/06 08:06:17;;;;;;;;;;;22.00;74.20;;;22.76;44.49;99072.72;4939875;28;123852;-81
2023/09/06 08:08:52;;;;;;;;;;;22.20;74.30;;;22.83;44.66;99072.78;4932982;28;124299;-81
2023/09/06 08:11:46;;;;;;;;;;;22.20;74.10;;;22.92;44.39;99081.75;4963767;28;114499;-82
2023/09/06 08:14:13;;;;;;;;;;;22.30;74.30;;;23.00;44.35;99088.25;4940946;28;113137;-81
2023/09/06 08:16:48;;;;;;;;;;;22.40;74.20;;;23.04;44.47;99083.47;4952106;28;124311;-81
2023/09/06 08:19:14;;;;;;;;;;;22.40;74.20;;;23.12;44.57;99087.97;4941738;28;124257;-81
2023/09/06 08:22:06;;;;;;;;;;;22.50;74.10;;;23.21;44.56;99088.44;4940511;28;115418;-81
2023/09/06 08:25:09;;;;;;;;;;;22.60;74.20;;;23.28;44.17;99088.50;4937374;28;114799;-81
2023/09/06 08:27:44;;;;;;;;;;;22.70;74.10;;;23.26;44.33;99090.09;4941975;28;124474;-81
2023/09/06 08:33:18;;;;;;;;;;;22.70;73.70;;;23.25;44.26;99083.66;4933329;28;115157;-81
2023/09/06 08:35:47;;;;;;;;;;;22.70;73.80;;;23.25;44.30;99094.13;4933295;28;113790;-81
2023/09/06 08:38:13;;;;;;;;;;;22.70;73.80;;;23.24;44.34;99093.31;4943220;28;124853;-81
2023/09/06 08:40:45;;;;;;;;;;;22.70;73.70;;;23.27;44.23;99103.00;4943715;28;124089;-82
2023/09/06 08:43:47;;;;;;;;;;;22.80;73.90;;;23.27;44.34;99089.72;4949954;28;114213;-82
2023/09/06 08:46:33;;;;;;;;;;;22.70;73.80;;;23.32;44.49;99088.50;4942229;28;113914;-81
2023/09/06 08:49:08;;;;;;;;;;;22.80;73.90;;;23.38;44.42;99087.78;4937255;28;124655;-81
2023/09/06 08:51:35;;;;;;;;;;;22.80;74.00;;;23.44;44.19;99084.59;4948758;28;124646;-83
2023/09/06 08:54:12;;;;;;;;;;;22.90;73.80;;;23.41;44.22;99094.63;4912602;28;115790;-83
2023/09/06 08:56:57;;;;;;;;;;;22.90;73.90;;;23.38;44.25;99096.22;4951231;28;113840;-82
2023/09/06 08:59:32;;;;;;;;;;;22.90;73.50;;;23.41;44.26;99093.84;4922701;28;124120;-81
2023/09/06 09:02:01;;;;;;;;;;;22.90;73.70;;;23.46;44.34;99083.00;4942979;28;123986;-82
2023/09/06 09:04:40;;;;;;;;;;;23.00;73.80;;;23.52;44.35;99086.25;4943893;28;114219;-81
2023/09/06 09:07:19;;;;;;;;;;;23.00;73.90;;;23.56;44.04;99089.91;4941342;28;113278;-82
2023/09/06 09:10:10;;;;;;;;;;;23.00;73.80;;;23.61;44.24;99086.72;4944876;28;124522;-82
2023/09/06 09:13:15;;;;;;;;;;;23.10;73.90;;;23.67;44.08;99073.03;4925322;28;124355;-82
2023/09/06 09:15:51;;;;;;;;;;;23.10;73.90;;;23.76;43.89;99084.81;4907907;28;115152;-82
2023/09/06 09:18:21;;;;;;;;;;;23.20;73.80;;;23.84;43.89;99080.84;4890579;28;114559;-82
2023/09/06 09:24:30;;;;;;;;;;;23.30;73.30;;;23.97;42.72;99078.50;4879512;28;124002;-82
2023/09/06 09:26:56;;;;;;;;;;;23.40;72.40;;;24.02;42.80;99080.94;4888052;28;114281;-80
2023/09/06 09:29:23;;;;;;;;;;;23.50;72.40;;;24.09;42.80;99080.94;4890211;28;113785;-81
2023/09/06 09:31:49;;;;;;;;;;;23.50;72.40;;;24.17;42.79;99071.31;4871215;28;124429;-82
2023/09/06 09:34:25;;;;;;;;;;;23.60;72.30;;;24.28;42.99;99081.84;4894350;28;123408;-81
2023/09/06 09:43:16;;;;;;;;;;;23.70;71.60;;;24.29;42.59;99078.63;4870892;28;124892;-81
2023/09/06 09:46:04;;;;;;;;;;;23.70;71.60;;;24.35;42.60;99070.56;4842916;28;123235;-81
2023/09/06 09:49:20;;;;;;;;;;;23.80;71.80;;;24.39;42.86;99071.38;4868886;28;114376;-81
2023/09/06 09:51:55;;;;;;;;;;;23.90;72.00;;;24.44;42.84;99071.81;4860201;28;113898;-82
2023/09/06 09:54:26;;;;;;;;;;;23.90;71.90;;;24.50;42.87;99065.78;4861243;28;124042;-81
2023/09/06 09:57:05;;;;;;;;;;;23.90;71.90;;;24.51;42.70;99068.22;4844811;28;123568;-82
2023/09/06 09:59:38;;;;;;;;;;;24.00;72.00;;;24.49;42.54;99064.97;4867112;28;115065;-82
2023/09/06 10:02:05;;;;;;;;;;;24.00;71.80;;;24.53;42.80;99062.16;4863017;28;114038;-81
2023/09/06 10:07:50;;;;;;;;;;;24.10;72.00;;;24.67;42.84;99070.69;4866982;28;124759;-82
2023/09/06 10:10:20;;;;;;;;;;;24.20;72.30;;;24.73;42.71;99071.09;4853996;28;115673;-82
2023/09/06 10:12:52;;;;;;;;;;;24.20;72.40;;;24.78;42.89;99067.88;4852724;28;114697;-81
2023/09/06 10:15:24;;;;;;;;;;;24.30;72.40;;;24.83;43.02;99067.47;4854989;28;124337;-82
2023/09/06 10:18:12;;;;;;;;;;;24.40;72.40;;;24.86;42.86;99066.66;4926649;28;124529;-82
2023/09/06 10:20:54;;;;;;;;;;;24.40;72.40;;;24.92;43.25;99065.03;4932093;28;114161;-81
2023/09/06 10:24:00;;;;;;;;;;;24.40;72.80;;;24.97;43.00;99066.66;4922331;28;112990;-82
2023/09/06 10:27:23;;;;;;;;;;;24.50;73.10;;;25.03;42.97;99054.53;4908220;28;124104;-82
2023/09/06 10:37:06;;;;;;;;;;;24.70;72.50;;;25.23;42.84;99057.00;4919741;28;113098;-81
2023/09/06 10:39:39;;;;;;;;;;;24.70;72.80;;;25.31;42.98;99048.09;4926637;28;123603;-81
2023/09/06 10:42:08;;;;;;;;;;;24.80;72.80;;;25.43;42.95;99044.03;4913267;28;123937;-82
2023/09/06 10:45:12;;;;;;;;;;;24.90;72.80;;;25.51;42.25;99045.63;4927196;28;114337;-82
2023/09/06 10:48:29;;;;;;;;;;;25.00;72.50;;;25.61;42.52;99049.66;4905867;28;112847;-82
2023/09/06 10:51:18;;;;;;;;;;;25.10;72.60;;;25.71;42.38;99051.66;4901088;28;124405;-82
2023/09/06 10:54:10;;;;;;;;;;;25.10;72.50;;;25.81;41.72;99047.16;4912640;28;124347;-82
2023/09/06 10:56:59;;;;;;;;;;;25.30;72.20;;;25.93;41.85;99032.63;4930566;28;114732;-82
2023/09/06 10:59:57;;;;;;;;;;;25.40;72.20;;;26.07;41.70;99033.78;4922533;28;114440;-82
2023/09/06 11:02:30;;;;;;;;;;;25.50;72.00;;;26.23;41.58;99034.91;4936471;28;123508;-81
2023/09/06 11:05:48;;;;;;;;;;;25.60;71.80;;;26.35;41.22;99032.81;4921327;28;123881;-81
2023/09/06 11:08:40;;;;;;;;;;;25.80;71.20;;;26.44;40.91;99033.97;4894025;28;114518;-81
2023/09/06 11:11:09;;;;;;;;;;;25.90;70.60;;;26.59;40.65;99033.91;4908826;28;114476;-81
2023/09/06 11:13:56;;;;;;;;;;;26.00;70.50;;;26.73;40.93;99033.00;4932650;28;124679;-82
2023/09/06 11:17:03;;;;;;;;;;;26.10;70.60;;;26.82;40.46;99025.63;4935808;28;124001;-83
2023/09/06 11:19:36;;;;;;;;;;;26.20;70.20;;;26.96;40.41;99027.56;4916271;28;113389;-82
2023/09/06 11:22:11;;;;;;;;;;;26.30;70.20;;;27.08;39.93;99020.53;4936762;28;114518;-82
2023/09/06 11:25:42;;;;;;;;;;;26.40;69.80;;;27.20;39.63;99022.91;4915434;28;123150;-81
2023/09/06 11:28:47;;;;;;;;;;;26.60;69.50;;;27.37;39.62;99014.63;4888279;28;122977;-81
2023/09/06 11:31:33;;;;;;;;;;;26.70;68.90;;;27.53;39.35;99006.34;4872129;28;114463;-81
2023/09/06 11:34:12;;;;;;;;;;;26.90;68.90;;;27.65;39.20;99014.34;4877243;28;112887;-81
2023/09/06 11:37:03;;;;;;;;;;;27.00;68.30;;;27.76;38.49;99003.66;4891082;28;123022;-81
2023/09/06 11:39:57;;;;;;;;;;;27.10;68.00;;;27.92;38.30;98999.44;4873639;28;123937;-81
2023/09/06 11:43:13;;;;;;;;;;;27.20;67.20;;;28.03;37.57;98991.59;4875867;28;114565;-81
2023/09/06 11:46:03;;;;;;;;;;;27.40;66.40;;;28.15;37.40;98993.84;4889487;28;113707;-81
2023/09/06 11:48:34;;;;;;;;;;;27.50;66.10;;;28.28;37.43;98996.13;4882301;28;123594;-81
2023/09/06 11:51:18;;;;;;;;;;;27.60;65.60;;;28.40;36.93;98984.97;4888198;28;124564;-82
2023/09/06 11:54:03;;;;;;;;;;;27.70;65.30;;;28.54;36.61;98989.66;4878087;28;113655;-81
2023/09/06 11:56:48;;;;;;;;;;;27.90;64.70;;;28.68;36.35;98976.47;4907332;28;112635;-82
2023/09/06 11:59:17;;;;;;;;;;;28.00;64.20;;;28.83;35.86;98984.34;4838187;29;123267;-81
2023/09/06 12:01:44;;;;;;;;;;;28.10;63.80;;;29.00;36.11;98981.59;4832824;29;123291;-81
2023/09/06 12:04:22;;;;;;;;;;;28.30;63.90;;;29.17;34.95;98979.72;4864428;28;114721;-81
2023/09/06 12:10:22;;;;;;;;;;;28.60;61.90;;;29.46;33.66;98965.75;4889784;28;124770;-81
2023/09/06 12:13:27;;;;;;;;;;;28.70;60.30;;;29.62;33.50;98965.81;4891711;28;124610;-80
2023/09/06 12:15:57;;;;;;;;;;;28.90;59.90;;;29.80;33.74;98971.19;4846132;28;113645;-81
2023/09/06 12:18:39;;;;;;;;;;;29.10;59.70;;;29.98;33.87;98970.78;4835650;28;112737;-81
2023/09/06 12:21:22;;;;;;;;;;;29.20;59.70;;;30.19;33.20;98952.41;4837966;29;123227;-80
2023/09/06 12:23:51;;;;;;;;;;;29.40;59.60;;;30.41;32.49;98951.94;4850947;28;125097;-81
2023/09/06 12:26:35;;;;;;;;;;;29.60;58.00;;;30.53;31.50;98949.19;4836477;29;114794;-81
2023/09/06 12:29:30;;;;;;;;;;;29.70;56.90;;;30.63;30.49;98950.19;4871247;28;114714;-81
2023/09/06 12:31:59;;;;;;;;;;;29.90;55.60;;;30.69;31.36;98951.25;4871911;28;124280;-81
2023/09/06 12:34:56;;;;;;;;;;;30.00;55.50;;;30.83;31.34;98944.41;4899624;28;123853;-81
2023/09/06 12:37:34;;;;;;;;;;;30.10;55.70;;;30.98;31.15;98944.84;4874411;28;114648;-81
2023/09/06 12:40:05;;;;;;;;;;;30.20;55.30;;;31.11;30.62;98942.88;4882528;28;113576;-82
2023/09/06 12:45:42;;;;;;;;;;;30.50;54.10;;;31.30;29.29;98943.16;4835715;28;123996;-82
2023/09/06 12:48:11;;;;;;;;;;;30.50;53.10;;;31.36;29.87;98927.09;4852181;28;114488;-82
2023/09/06 12:50:40;;;;;;;;;;;30.60;53.40;;;31.45;29.21;98922.34;4857250;28;113904;-83
2023/09/06 12:53:16;;;;;;;;;;;30.70;52.60;;;31.50;28.85;98929.56;4848806;28;124630;-82
2023/09/06 12:55:54;;;;;;;;;;;30.70;51.60;;;31.56;28.95;98926.97;4870068;28;123928;-82
2023/09/06 12:58:20;;;;;;;;;;;30.80;52.00;;;31.67;29.66;98922.53;4887493;28;114254;-82
2023/09/06 13:01:17;;;;;;;;;;;31.00;52.40;;;31.85;29.37;98918.34;4853495;28;114592;-82
2023/09/06 13:03:55;;;;;;;;;;;31.10;51.90;;;32.04;28.86;98920.22;4868726;28;123697;-82
2023/09/06 13:06:40;;;;;;;;;;;31.30;51.40;;;32.24;27.97;98922.06;4871261;28;124235;-82
2023/09/06 13:09:15;;;;;;;;;;;31.40;50.20;;;32.41;28.35;98914.19;4866902;28;114291;-82
2023/09/06 13:12:32;;;;;;;;;;;31.60;50.80;;;32.61;27.49;98913.94;4884368;28;112881;-82
2023/09/06 13:15:17;;;;;;;;;;;31.80;49.80;;;32.82;27.54;98907.50;4866823;28;124493;-82
2023/09/06 13:17:49;;;;;;;;;;;32.00;49.80;;;33.00;26.88;98901.16;4869845;28;122997;-82
2023/09/06 13:20:24;;;;;;;;;;;32.20;48.70;;;33.12;26.56;98899.53;4848091;28;113715;-82
2023/09/06 13:23:27;;;;;;;;;;;32.30;48.10;;;33.10;26.47;98899.19;4956353;28;113824;-82